sensor_id;sensor_type;location;lat;lon;timestamp;temperature;humidity
54124;DHT22;55741;53.252;5.788;2022-12-29T00:00:10;9.60;99.90
54124;DHT22;55741;53.252;5.788;2022-12-29T00:02:37;9.70;99.90
54124;DHT22;55741;53.252;5.788;2022-12-29T00:05:03;9.60;99.90
54124;DHT22;55741;53.252;5.788;2022-12-29T00:07:29;9.70;99.90
54124;DHT22;55741;53.252;5.788;2022-12-29T00:09:56;9.70;99.90
54124;DHT22;55741;53.252;5.788;2022-12-29T00:12:24;9.70;99.90
54124;DHT22;55741;53.252;5.788;2022-12-29T00:14:50;9.60;99.90
54124;DHT22;55741;53.252;5.788;2022-12-29T00:17:34;9.60;99.90
54124;DHT22;55741;53.252;5.788;2022-12-29T00:20:00;9.60;99.90
54124;DHT22;55741;53.252;5.788;2022-12-29T00:22:44;9.60;99.90
54124;DHT22;55741;53.252;5.788;2022-12-29T00:25:29;9.60;99.90
54124;DHT22;55741;53.252;5.788;2022-12-29T00:28:13;9.50;99.90
54124;DHT22;55741;53.252;5.788;2022-12-29T00:31:00;9.50;99.90
54124;DHT22;55741;53.252;5.788;2022-12-29T00:33:44;9.50;99.90
54124;DHT22;55741;53.252;5.788;2022-12-29T00:36:39;9.50;99.90
54124;DHT22;55741;53.252;5.788;2022-12-29T00:39:10;9.50;99.90
54124;DHT22;55741;53.252;5.788;2022-12-29T00:41:56;9.50;99.90
54124;DHT22;55741;53.252;5.788;2022-12-29T00:44:40;9.50;99.90
54124;DHT22;55741;53.252;5.788;2022-12-29T00:47:06;9.50;99.90
54124;DHT22;55741;53.252;5.788;2022-12-29T00:49:32;9.50;99.90
54124;DHT22;55741;53.252;5.788;2022-12-29T00:51:59;9.50;99.90
54124;DHT22;55741;53.252;5.788;2022-12-29T00:54:26;9.50;99.90
54124;DHT22;55741;53.252;5.788;2022-12-29T00:56:52;9.50;99.90
54124;DHT22;55741;53.252;5.788;2022-12-29T00:59:19;9.50;99.90
54124;DHT22;55741;53.252;5.788;2022-12-29T01:01:46;9.50;99.90
54124;DHT22;55741;53.252;5.788;2022-12-29T01:04:12;9.50;99.90
54124;DHT22;55741;53.252;5.788;2022-12-29T01:06:40;9.50;99.90
54124;DHT22;55741;53.252;5.788;2022-12-29T01:09:07;9.50;99.90
54124;DHT22;55741;53.252;5.788;2022-12-29T01:11:52;9.50;99.90
54124;DHT22;55741;53.252;5.788;2022-12-29T01:14:19;9.50;99.90
54124;DHT22;55741;53.252;5.788;2022-12-29T01:16:45;9.50;99.90
54124;DHT22;55741;53.252;5.788;2022-12-29T01:19:15;9.50;99.90
54124;DHT22;55741;53.252;5.788;2022-12-29T01:21:41;9.60;99.90
54124;DHT22;55741;53.252;5.788;2022-12-29T01:24:07;9.60;99.90
54124;DHT22;55741;53.252;5.788;2022-12-29T01:26:33;9.60;99.90
54124;DHT22;55741;53.252;5.788;2022-12-29T01:28:59;9.50;99.90
54124;DHT22;55741;53.252;5.788;2022-12-29T01:31:27;9.60;99.90
54124;DHT22;55741;53.252;5.788;2022-12-29T01:33:52;9.50;99.90
54124;DHT22;55741;53.252;5.788;2022-12-29T01:36:19;9.50;99.90
54124;DHT22;55741;53.252;5.788;2022-12-29T01:38:45;9.60;99.90
54124;DHT22;55741;53.252;5.788;2022-12-29T01:41:13;9.60;99.90
54124;DHT22;55741;53.252;5.788;2022-12-29T01:43:49;9.60;99.90
54124;DHT22;55741;53.252;5.788;2022-12-29T01:46:42;9.60;99.90
54124;DHT22;55741;53.252;5.788;2022-12-29T01:49:15;9.70;99.90
54124;DHT22;55741;53.252;5.788;2022-12-29T01:51:48;9.60;99.90
54124;DHT22;55741;53.252;5.788;2022-12-29T01:54:36;9.70;99.90
54124;DHT22;55741;53.252;5.788;2022-12-29T01:57:10;9.70;99.90
54124;DHT22;55741;53.252;5.788;2022-12-29T01:59:43;9.70;99.90
54124;DHT22;55741;53.252;5.788;2022-12-29T02:02:11;9.60;99.90
54124;DHT22;55741;53.252;5.788;2022-12-29T02:04:45;9.60;99.90
54124;DHT22;55741;53.252;5.788;2022-12-29T02:07:18;9.60;99.90
54124;DHT22;55741;53.252;5.788;2022-12-29T02:09:48;9.60;99.90
54124;DHT22;55741;53.252;5.788;2022-12-29T02:12:15;9.60;99.90
54124;DHT22;55741;53.252;5.788;2022-12-29T02:14:41;9.60;99.90
54124;DHT22;55741;53.252;5.788;2022-12-29T02:26:22;9.50;99.90
54124;DHT22;55741;53.252;5.788;2022-12-29T02:32:01;9.50;99.90
54124;DHT22;55741;53.252;5.788;2022-12-29T02:35:01;9.50;99.90
54124;DHT22;55741;53.252;5.788;2022-12-29T02:37:52;9.50;99.90
54124;DHT22;55741;53.252;5.788;2022-12-29T02:40:41;9.50;99.90
54124;DHT22;55741;53.252;5.788;2022-12-29T02:43:14;9.50;99.90
54124;DHT22;55741;53.252;5.788;2022-12-29T02:45:47;9.40;99.90
54124;DHT22;55741;53.252;5.788;2022-12-29T02:48:38;9.40;99.90
54124;DHT22;55741;53.252;5.788;2022-12-29T02:51:30;9.50;99.90
54124;DHT22;55741;53.252;5.788;2022-12-29T02:53:59;9.40;99.90
54124;DHT22;55741;53.252;5.788;2022-12-29T02:56:44;9.50;99.90
54124;DHT22;55741;53.252;5.788;2022-12-29T02:59:10;9.50;99.90
54124;DHT22;55741;53.252;5.788;2022-12-29T03:10:40;9.50;99.90
54124;DHT22;55741;53.252;5.788;2022-12-29T03:13:44;9.50;99.90
54124;DHT22;55741;53.252;5.788;2022-12-29T03:16:46;9.50;99.90
54124;DHT22;55741;53.252;5.788;2022-12-29T03:19:31;9.40;99.90
54124;DHT22;55741;53.252;5.788;2022-12-29T03:22:12;9.40;99.90
54124;DHT22;55741;53.252;5.788;2022-12-29T03:25:25;9.30;99.90
54124;DHT22;55741;53.252;5.788;2022-12-29T03:28:11;9.30;99.90
54124;DHT22;55741;53.252;5.788;2022-12-29T03:30:39;9.30;99.90
54124;DHT22;55741;53.252;5.788;2022-12-29T03:33:13;9.30;99.90
54124;DHT22;55741;53.252;5.788;2022-12-29T03:35:42;9.30;99.90
54124;DHT22;55741;53.252;5.788;2022-12-29T03:38:35;9.40;99.90
54124;DHT22;55741;53.252;5.788;2022-12-29T03:41:04;9.40;99.90
54124;DHT22;55741;53.252;5.788;2022-12-29T03:43:33;9.30;99.90
54124;DHT22;55741;53.252;5.788;2022-12-29T03:45:59;9.30;99.90
54124;DHT22;55741;53.252;5.788;2022-12-29T03:48:25;9.30;99.90
54124;DHT22;55741;53.252;5.788;2022-12-29T03:50:51;9.20;99.90
54124;DHT22;55741;53.252;5.788;2022-12-29T03:53:17;9.20;99.90
54124;DHT22;55741;53.252;5.788;2022-12-29T03:55:43;9.20;99.90
54124;DHT22;55741;53.252;5.788;2022-12-29T03:58:09;9.20;99.90
54124;DHT22;55741;53.252;5.788;2022-12-29T04:00:35;9.20;99.90
54124;DHT22;55741;53.252;5.788;2022-12-29T04:03:01;9.20;99.90
54124;DHT22;55741;53.252;5.788;2022-12-29T04:05:28;9.10;99.90
54124;DHT22;55741;53.252;5.788;2022-12-29T04:07:54;9.10;99.90
54124;DHT22;55741;53.252;5.788;2022-12-29T04:10:20;9.10;99.90
54124;DHT22;55741;53.252;5.788;2022-12-29T04:12:46;9.10;99.90
54124;DHT22;55741;53.252;5.788;2022-12-29T04:15:12;9.10;99.90
54124;DHT22;55741;53.252;5.788;2022-12-29T04:17:38;9.10;99.90
54124;DHT22;55741;53.252;5.788;2022-12-29T04:20:05;9.10;99.90
54124;DHT22;55741;53.252;5.788;2022-12-29T04:22:56;9.10;99.90
54124;DHT22;55741;53.252;5.788;2022-12-29T04:25:26;9.10;99.90
54124;DHT22;55741;53.252;5.788;2022-12-29T04:27:52;9.10;99.90
54124;DHT22;55741;53.252;5.788;2022-12-29T04:30:17;9.00;99.90
54124;DHT22;55741;53.252;5.788;2022-12-29T04:32:43;9.00;99.90
54124;DHT22;55741;53.252;5.788;2022-12-29T04:35:14;9.00;99.90
54124;DHT22;55741;53.252;5.788;2022-12-29T04:37:41;8.90;99.90
54124;DHT22;55741;53.252;5.788;2022-12-29T04:40:09;8.90;99.90
54124;DHT22;55741;53.252;5.788;2022-12-29T04:42:35;8.80;99.90
54124;DHT22;55741;53.252;5.788;2022-12-29T04:45:01;8.80;99.90
54124;DHT22;55741;53.252;5.788;2022-12-29T04:47:27;8.80;99.90
54124;DHT22;55741;53.252;5.788;2022-12-29T04:49:53;8.80;99.90
54124;DHT22;55741;53.252;5.788;2022-12-29T04:52:19;8.80;99.90
54124;DHT22;55741;53.252;5.788;2022-12-29T04:54:45;8.80;99.90
54124;DHT22;55741;53.252;5.788;2022-12-29T04:57:11;8.90;99.90
54124;DHT22;55741;53.252;5.788;2022-12-29T04:59:37;8.90;99.90
54124;DHT22;55741;53.252;5.788;2022-12-29T05:02:03;8.90;99.90
54124;DHT22;55741;53.252;5.788;2022-12-29T05:04:29;8.90;99.90
54124;DHT22;55741;53.252;5.788;2022-12-29T05:06:55;8.90;99.90
54124;DHT22;55741;53.252;5.788;2022-12-29T05:09:28;8.90;99.90
54124;DHT22;55741;53.252;5.788;2022-12-29T05:11:55;9.00;99.90
54124;DHT22;55741;53.252;5.788;2022-12-29T05:14:21;9.00;99.90
54124;DHT22;55741;53.252;5.788;2022-12-29T05:16:47;9.00;99.90
54124;DHT22;55741;53.252;5.788;2022-12-29T05:19:13;9.10;99.90
54124;DHT22;55741;53.252;5.788;2022-12-29T05:21:39;9.10;99.90
54124;DHT22;55741;53.252;5.788;2022-12-29T05:24:05;9.00;99.90
54124;DHT22;55741;53.252;5.788;2022-12-29T05:26:33;9.00;99.90
54124;DHT22;55741;53.252;5.788;2022-12-29T05:28:59;9.00;99.90
54124;DHT22;55741;53.252;5.788;2022-12-29T05:31:36;9.00;99.90
54124;DHT22;55741;53.252;5.788;2022-12-29T05:34:02;9.10;99.90
54124;DHT22;55741;53.252;5.788;2022-12-29T05:36:29;9.10;99.90
54124;DHT22;55741;53.252;5.788;2022-12-29T05:38:55;9.10;99.90
54124;DHT22;55741;53.252;5.788;2022-12-29T05:41:21;9.10;99.90
54124;DHT22;55741;53.252;5.788;2022-12-29T05:43:47;9.10;99.90
54124;DHT22;55741;53.252;5.788;2022-12-29T05:46:13;9.10;99.90
54124;DHT22;55741;53.252;5.788;2022-12-29T05:48:39;9.10;99.90
54124;DHT22;55741;53.252;5.788;2022-12-29T05:51:05;9.10;99.90
54124;DHT22;55741;53.252;5.788;2022-12-29T05:53:31;9.20;99.90
54124;DHT22;55741;53.252;5.788;2022-12-29T05:55:57;9.20;99.90
54124;DHT22;55741;53.252;5.788;2022-12-29T05:58:23;9.20;99.90
54124;DHT22;55741;53.252;5.788;2022-12-29T06:00:49;9.20;99.90
54124;DHT22;55741;53.252;5.788;2022-12-29T06:03:15;9.20;99.90
54124;DHT22;55741;53.252;5.788;2022-12-29T06:05:41;9.20;99.90
54124;DHT22;55741;53.252;5.788;2022-12-29T06:08:07;9.20;99.90
54124;DHT22;55741;53.252;5.788;2022-12-29T06:10:38;9.20;99.90
54124;DHT22;55741;53.252;5.788;2022-12-29T06:13:05;9.20;99.90
54124;DHT22;55741;53.252;5.788;2022-12-29T06:15:32;9.20;99.90
54124;DHT22;55741;53.252;5.788;2022-12-29T06:17:58;9.20;99.90
54124;DHT22;55741;53.252;5.788;2022-12-29T06:20:25;9.10;99.90
54124;DHT22;55741;53.252;5.788;2022-12-29T06:22:51;9.10;99.90
54124;DHT22;55741;53.252;5.788;2022-12-29T06:25:17;9.00;99.90
54124;DHT22;55741;53.252;5.788;2022-12-29T06:27:43;9.00;99.90
54124;DHT22;55741;53.252;5.788;2022-12-29T06:30:10;8.90;99.90
54124;DHT22;55741;53.252;5.788;2022-12-29T06:32:57;8.90;99.90
54124;DHT22;55741;53.252;5.788;2022-12-29T06:35:43;8.90;99.90
54124;DHT22;55741;53.252;5.788;2022-12-29T06:38:31;8.90;99.90
54124;DHT22;55741;53.252;5.788;2022-12-29T06:41:16;8.90;99.90
54124;DHT22;55741;53.252;5.788;2022-12-29T06:44:02;8.90;99.90
54124;DHT22;55741;53.252;5.788;2022-12-29T06:46:48;8.80;99.90
54124;DHT22;55741;53.252;5.788;2022-12-29T06:49:34;8.80;99.90
54124;DHT22;55741;53.252;5.788;2022-12-29T06:52:00;8.80;99.90
54124;DHT22;55741;53.252;5.788;2022-12-29T06:54:29;8.80;99.90
54124;DHT22;55741;53.252;5.788;2022-12-29T06:56:55;8.80;99.90
54124;DHT22;55741;53.252;5.788;2022-12-29T06:59:21;8.90;99.90
54124;DHT22;55741;53.252;5.788;2022-12-29T07:01:47;8.90;99.90
54124;DHT22;55741;53.252;5.788;2022-12-29T07:04:13;8.90;99.90
54124;DHT22;55741;53.252;5.788;2022-12-29T07:06:39;8.90;99.90
54124;DHT22;55741;53.252;5.788;2022-12-29T07:09:07;8.90;99.90
54124;DHT22;55741;53.252;5.788;2022-12-29T07:11:33;9.00;99.90
54124;DHT22;55741;53.252;5.788;2022-12-29T07:13:59;9.00;99.90
54124;DHT22;55741;53.252;5.788;2022-12-29T07:16:25;9.00;99.90
54124;DHT22;55741;53.252;5.788;2022-12-29T07:18:51;9.00;99.90
54124;DHT22;55741;53.252;5.788;2022-12-29T07:21:18;8.90;99.90
54124;DHT22;55741;53.252;5.788;2022-12-29T07:23:44;8.90;99.90
54124;DHT22;55741;53.252;5.788;2022-12-29T07:26:13;9.00;99.90
54124;DHT22;55741;53.252;5.788;2022-12-29T07:28:39;9.00;99.90
54124;DHT22;55741;53.252;5.788;2022-12-29T07:31:06;9.00;99.90
54124;DHT22;55741;53.252;5.788;2022-12-29T07:33:32;9.00;99.90
54124;DHT22;55741;53.252;5.788;2022-12-29T07:35:58;9.00;99.90
54124;DHT22;55741;53.252;5.788;2022-12-29T07:38:26;9.00;99.90
54124;DHT22;55741;53.252;5.788;2022-12-29T07:40:58;9.00;99.90
54124;DHT22;55741;53.252;5.788;2022-12-29T07:43:25;9.00;99.90
54124;DHT22;55741;53.252;5.788;2022-12-29T07:45:53;9.10;99.90
54124;DHT22;55741;53.252;5.788;2022-12-29T07:48:21;9.00;99.90
54124;DHT22;55741;53.252;5.788;2022-12-29T07:50:52;9.10;99.90
54124;DHT22;55741;53.252;5.788;2022-12-29T07:53:17;9.00;99.90
54124;DHT22;55741;53.252;5.788;2022-12-29T07:55:43;9.00;99.90
54124;DHT22;55741;53.252;5.788;2022-12-29T07:58:09;9.00;99.90
54124;DHT22;55741;53.252;5.788;2022-12-29T08:00:35;9.10;99.90
54124;DHT22;55741;53.252;5.788;2022-12-29T08:03:04;9.10;99.90
54124;DHT22;55741;53.252;5.788;2022-12-29T08:05:32;9.10;99.90
54124;DHT22;55741;53.252;5.788;2022-12-29T08:07:58;9.10;99.90
54124;DHT22;55741;53.252;5.788;2022-12-29T08:10:24;9.10;99.90
54124;DHT22;55741;53.252;5.788;2022-12-29T08:12:50;9.10;99.90
54124;DHT22;55741;53.252;5.788;2022-12-29T08:15:16;9.10;99.90
54124;DHT22;55741;53.252;5.788;2022-12-29T08:17:42;9.00;99.90
54124;DHT22;55741;53.252;5.788;2022-12-29T08:20:08;9.10;99.90
54124;DHT22;55741;53.252;5.788;2022-12-29T08:22:35;9.10;99.90
54124;DHT22;55741;53.252;5.788;2022-12-29T08:25:01;9.10;99.90
54124;DHT22;55741;53.252;5.788;2022-12-29T08:27:27;9.10;99.90
54124;DHT22;55741;53.252;5.788;2022-12-29T08:29:53;9.10;99.90
54124;DHT22;55741;53.252;5.788;2022-12-29T08:32:19;9.10;99.90
54124;DHT22;55741;53.252;5.788;2022-12-29T08:34:45;9.00;99.90
54124;DHT22;55741;53.252;5.788;2022-12-29T08:37:11;9.00;99.90
54124;DHT22;55741;53.252;5.788;2022-12-29T08:39:39;8.90;99.90
54124;DHT22;55741;53.252;5.788;2022-12-29T08:42:05;8.90;99.90
54124;DHT22;55741;53.252;5.788;2022-12-29T08:44:31;8.80;99.90
54124;DHT22;55741;53.252;5.788;2022-12-29T08:46:57;8.80;99.90
54124;DHT22;55741;53.252;5.788;2022-12-29T08:49:23;8.80;99.90
54124;DHT22;55741;53.252;5.788;2022-12-29T08:51:49;8.90;99.90
54124;DHT22;55741;53.252;5.788;2022-12-29T08:54:21;8.90;99.90
54124;DHT22;55741;53.252;5.788;2022-12-29T08:56:47;8.90;99.90
54124;DHT22;55741;53.252;5.788;2022-12-29T08:59:13;8.90;99.90
54124;DHT22;55741;53.252;5.788;2022-12-29T09:01:38;9.00;99.90
54124;DHT22;55741;53.252;5.788;2022-12-29T09:04:08;9.00;99.90
54124;DHT22;55741;53.252;5.788;2022-12-29T09:06:34;9.00;99.90
54124;DHT22;55741;53.252;5.788;2022-12-29T09:09:00;9.00;99.90
54124;DHT22;55741;53.252;5.788;2022-12-29T09:11:26;9.00;99.90
54124;DHT22;55741;53.252;5.788;2022-12-29T09:13:52;9.00;99.90
54124;DHT22;55741;53.252;5.788;2022-12-29T09:16:20;9.00;99.90
54124;DHT22;55741;53.252;5.788;2022-12-29T09:18:46;9.00;99.90
54124;DHT22;55741;53.252;5.788;2022-12-29T09:21:13;9.00;99.90
54124;DHT22;55741;53.252;5.788;2022-12-29T09:23:39;9.00;99.90
54124;DHT22;55741;53.252;5.788;2022-12-29T09:26:06;8.90;99.90
54124;DHT22;55741;53.252;5.788;2022-12-29T09:28:33;8.90;99.90
54124;DHT22;55741;53.252;5.788;2022-12-29T09:31:00;8.90;99.90
54124;DHT22;55741;53.252;5.788;2022-12-29T09:33:26;8.80;99.90
54124;DHT22;55741;53.252;5.788;2022-12-29T09:35:57;8.80;99.90
54124;DHT22;55741;53.252;5.788;2022-12-29T09:38:28;8.80;99.90
54124;DHT22;55741;53.252;5.788;2022-12-29T09:41:18;8.80;99.90
54124;DHT22;55741;53.252;5.788;2022-12-29T09:46:25;8.60;99.90
54124;DHT22;55741;53.252;5.788;2022-12-29T09:51:44;8.60;99.90
54124;DHT22;55741;53.252;5.788;2022-12-29T09:54:33;8.60;99.90
54124;DHT22;55741;53.252;5.788;2022-12-29T09:57:00;8.50;99.90
54124;DHT22;55741;53.252;5.788;2022-12-29T09:59:40;8.50;99.90
54124;DHT22;55741;53.252;5.788;2022-12-29T10:04:45;8.60;99.90
54124;DHT22;55741;53.252;5.788;2022-12-29T10:07:23;8.60;99.90
54124;DHT22;55741;53.252;5.788;2022-12-29T10:10:29;8.70;99.90
54124;DHT22;55741;53.252;5.788;2022-12-29T10:21:02;8.80;99.90
54124;DHT22;55741;53.252;5.788;2022-12-29T10:23:40;8.80;99.90
54124;DHT22;55741;53.252;5.788;2022-12-29T10:26:15;8.80;99.90
54124;DHT22;55741;53.252;5.788;2022-12-29T10:29:05;8.80;99.90
54124;DHT22;55741;53.252;5.788;2022-12-29T10:31:44;8.80;99.90
54124;DHT22;55741;53.252;5.788;2022-12-29T10:34:24;8.90;99.90
54124;DHT22;55741;53.252;5.788;2022-12-29T10:37:00;8.90;99.90
54124;DHT22;55741;53.252;5.788;2022-12-29T10:39:38;8.80;99.90
54124;DHT22;55741;53.252;5.788;2022-12-29T10:44:48;8.80;99.90
54124;DHT22;55741;53.252;5.788;2022-12-29T10:47:21;8.80;99.90
54124;DHT22;55741;53.252;5.788;2022-12-29T10:49:49;8.90;99.90
54124;DHT22;55741;53.252;5.788;2022-12-29T10:52:17;8.90;99.90
54124;DHT22;55741;53.252;5.788;2022-12-29T10:55:04;8.90;99.90
54124;DHT22;55741;53.252;5.788;2022-12-29T10:57:41;8.90;99.90
54124;DHT22;55741;53.252;5.788;2022-12-29T11:03:28;8.90;99.90
54124;DHT22;55741;53.252;5.788;2022-12-29T11:08:38;8.90;99.90
54124;DHT22;55741;53.252;5.788;2022-12-29T11:11:06;9.00;99.90
54124;DHT22;55741;53.252;5.788;2022-12-29T11:13:35;9.00;99.90
54124;DHT22;55741;53.252;5.788;2022-12-29T11:16:12;9.00;99.90
54124;DHT22;55741;53.252;5.788;2022-12-29T11:18:39;9.00;99.90
54124;DHT22;55741;53.252;5.788;2022-12-29T11:21:38;9.00;99.90
54124;DHT22;55741;53.252;5.788;2022-12-29T11:24:22;9.00;99.90
54124;DHT22;55741;53.252;5.788;2022-12-29T11:26:51;9.10;99.90
54124;DHT22;55741;53.252;5.788;2022-12-29T11:29:36;9.20;99.90
54124;DHT22;55741;53.252;5.788;2022-12-29T11:32:12;9.20;99.90
54124;DHT22;55741;53.252;5.788;2022-12-29T11:34:39;9.30;99.90
54124;DHT22;55741;53.252;5.788;2022-12-29T11:37:11;9.40;99.90
54124;DHT22;55741;53.252;5.788;2022-12-29T11:40:29;9.40;99.90
54124;DHT22;55741;53.252;5.788;2022-12-29T11:42:52;9.50;99.90
54124;DHT22;55741;53.252;5.788;2022-12-29T11:45:23;9.50;99.90
54124;DHT22;55741;53.252;5.788;2022-12-29T11:48:07;9.60;99.90
54124;DHT22;55741;53.252;5.788;2022-12-29T11:50:55;9.60;99.90
54124;DHT22;55741;53.252;5.788;2022-12-29T11:53:50;9.60;99.90
54124;DHT22;55741;53.252;5.788;2022-12-29T11:56:39;9.70;99.90
54124;DHT22;55741;53.252;5.788;2022-12-29T12:02:35;9.70;99.90
54124;DHT22;55741;53.252;5.788;2022-12-29T12:05:28;9.80;99.90
54124;DHT22;55741;53.252;5.788;2022-12-29T12:08:39;9.80;99.90
54124;DHT22;55741;53.252;5.788;2022-12-29T12:11:31;9.80;99.90
54124;DHT22;55741;53.252;5.788;2022-12-29T12:14:26;9.80;99.90
54124;DHT22;55741;53.252;5.788;2022-12-29T12:17:19;9.80;99.90
54124;DHT22;55741;53.252;5.788;2022-12-29T12:23:19;9.80;99.90
54124;DHT22;55741;53.252;5.788;2022-12-29T12:39:05;9.70;99.90
54124;DHT22;55741;53.252;5.788;2022-12-29T12:44:48;9.70;99.90
54124;DHT22;55741;53.252;5.788;2022-12-29T13:01:20;9.60;99.90
54124;DHT22;55741;53.252;5.788;2022-12-29T13:07:16;9.50;99.90
54124;DHT22;55741;53.252;5.788;2022-12-29T13:15:24;9.50;99.90
54124;DHT22;55741;53.252;5.788;2022-12-29T13:17:57;9.50;99.90
54124;DHT22;55741;53.252;5.788;2022-12-29T13:25:55;9.50;99.90
54124;DHT22;55741;53.252;5.788;2022-12-29T13:34:03;9.30;99.90
54124;DHT22;55741;53.252;5.788;2022-12-29T13:36:42;9.30;99.90
54124;DHT22;55741;53.252;5.788;2022-12-29T13:39:33;9.20;99.90
54124;DHT22;55741;53.252;5.788;2022-12-29T13:42:03;9.20;99.90
54124;DHT22;55741;53.252;5.788;2022-12-29T13:44:41;9.20;99.90
54124;DHT22;55741;53.252;5.788;2022-12-29T13:47:27;9.10;99.90
54124;DHT22;55741;53.252;5.788;2022-12-29T13:49:57;9.10;99.90
54124;DHT22;55741;53.252;5.788;2022-12-29T13:52:37;9.10;99.90
54124;DHT22;55741;53.252;5.788;2022-12-29T14:00:21;9.10;99.90
54124;DHT22;55741;53.252;5.788;2022-12-29T14:03:17;9.10;99.90
54124;DHT22;55741;53.252;5.788;2022-12-29T14:06:02;9.10;99.90
54124;DHT22;55741;53.252;5.788;2022-12-29T14:08:28;9.10;99.90
54124;DHT22;55741;53.252;5.788;2022-12-29T14:10:54;9.10;99.90
54124;DHT22;55741;53.252;5.788;2022-12-29T14:13:22;9.10;99.90
54124;DHT22;55741;53.252;5.788;2022-12-29T14:15:54;9.00;99.90
54124;DHT22;55741;53.252;5.788;2022-12-29T14:18:25;9.00;99.90
54124;DHT22;55741;53.252;5.788;2022-12-29T14:21:17;9.00;99.90
54124;DHT22;55741;53.252;5.788;2022-12-29T14:23:47;8.90;99.90
54124;DHT22;55741;53.252;5.788;2022-12-29T14:28:55;8.80;99.90
54124;DHT22;55741;53.252;5.788;2022-12-29T14:36:36;8.70;99.90
54124;DHT22;55741;53.252;5.788;2022-12-29T14:39:04;8.60;99.90
54124;DHT22;55741;53.252;5.788;2022-12-29T14:42:06;8.60;99.90
54124;DHT22;55741;53.252;5.788;2022-12-29T14:44:52;8.60;99.90
54124;DHT22;55741;53.252;5.788;2022-12-29T14:47:25;8.50;99.90
54124;DHT22;55741;53.252;5.788;2022-12-29T14:49:53;8.50;99.90
54124;DHT22;55741;53.252;5.788;2022-12-29T14:52:23;8.50;99.90
54124;DHT22;55741;53.252;5.788;2022-12-29T14:57:59;8.40;99.90
54124;DHT22;55741;53.252;5.788;2022-12-29T15:00:34;8.30;99.90
54124;DHT22;55741;53.252;5.788;2022-12-29T15:03:23;8.30;99.90
54124;DHT22;55741;53.252;5.788;2022-12-29T15:08:22;8.30;99.90
54124;DHT22;55741;53.252;5.788;2022-12-29T15:10:53;8.30;99.90
54124;DHT22;55741;53.252;5.788;2022-12-29T15:13:33;8.30;99.90
54124;DHT22;55741;53.252;5.788;2022-12-29T15:15:59;8.30;99.90
54124;DHT22;55741;53.252;5.788;2022-12-29T15:18:28;8.30;99.90
54124;DHT22;55741;53.252;5.788;2022-12-29T15:21:06;8.20;99.90
54124;DHT22;55741;53.252;5.788;2022-12-29T15:23:34;8.20;99.90
54124;DHT22;55741;53.252;5.788;2022-12-29T15:26:05;8.30;99.90
54124;DHT22;55741;53.252;5.788;2022-12-29T15:28:44;8.30;99.90
54124;DHT22;55741;53.252;5.788;2022-12-29T15:33:48;8.30;99.90
54124;DHT22;55741;53.252;5.788;2022-12-29T15:36:38;8.30;99.90
54124;DHT22;55741;53.252;5.788;2022-12-29T15:39:18;8.30;99.90
54124;DHT22;55741;53.252;5.788;2022-12-29T15:41:52;8.30;99.90
54124;DHT22;55741;53.252;5.788;2022-12-29T15:44:29;8.30;99.90
54124;DHT22;55741;53.252;5.788;2022-12-29T15:47:04;8.30;99.90
54124;DHT22;55741;53.252;5.788;2022-12-29T15:49:31;8.30;99.90
54124;DHT22;55741;53.252;5.788;2022-12-29T15:51:57;8.30;99.90
54124;DHT22;55741;53.252;5.788;2022-12-29T15:54:24;8.30;99.90
54124;DHT22;55741;53.252;5.788;2022-12-29T15:56:51;8.30;99.90
54124;DHT22;55741;53.252;5.788;2022-12-29T15:59:35;8.30;99.90
54124;DHT22;55741;53.252;5.788;2022-12-29T16:02:02;8.30;99.90
54124;DHT22;55741;53.252;5.788;2022-12-29T16:04:30;8.30;99.90
54124;DHT22;55741;53.252;5.788;2022-12-29T16:07:00;8.20;99.90
54124;DHT22;55741;53.252;5.788;2022-12-29T16:09:42;8.20;99.90
54124;DHT22;55741;53.252;5.788;2022-12-29T16:12:29;8.10;99.90
54124;DHT22;55741;53.252;5.788;2022-12-29T16:14:58;8.10;99.90
54124;DHT22;55741;53.252;5.788;2022-12-29T16:17:28;8.00;99.90
54124;DHT22;55741;53.252;5.788;2022-12-29T16:20:04;8.00;99.90
54124;DHT22;55741;53.252;5.788;2022-12-29T16:22:35;8.00;99.90
54124;DHT22;55741;53.252;5.788;2022-12-29T16:28:01;8.00;99.90
54124;DHT22;55741;53.252;5.788;2022-12-29T16:30:29;8.00;99.90
54124;DHT22;55741;53.252;5.788;2022-12-29T16:33:01;8.00;99.90
54124;DHT22;55741;53.252;5.788;2022-12-29T16:38:16;8.00;99.90
54124;DHT22;55741;53.252;5.788;2022-12-29T16:41:02;7.90;99.90
54124;DHT22;55741;53.252;5.788;2022-12-29T16:43:32;7.90;99.90
54124;DHT22;55741;53.252;5.788;2022-12-29T16:48:33;7.80;99.90
54124;DHT22;55741;53.252;5.788;2022-12-29T16:51:15;7.80;99.90
54124;DHT22;55741;53.252;5.788;2022-12-29T16:53:52;7.70;99.90
54124;DHT22;55741;53.252;5.788;2022-12-29T16:56:24;7.60;99.90
54124;DHT22;55741;53.252;5.788;2022-12-29T16:59:08;7.60;99.90
54124;DHT22;55741;53.252;5.788;2022-12-29T17:01:43;7.60;99.90
54124;DHT22;55741;53.252;5.788;2022-12-29T17:04:11;7.50;99.90
54124;DHT22;55741;53.252;5.788;2022-12-29T17:06:37;7.50;99.90
54124;DHT22;55741;53.252;5.788;2022-12-29T17:09:26;7.50;99.90
54124;DHT22;55741;53.252;5.788;2022-12-29T17:11:57;7.50;99.90
54124;DHT22;55741;53.252;5.788;2022-12-29T17:16:58;7.50;99.90
54124;DHT22;55741;53.252;5.788;2022-12-29T17:19:36;7.60;99.90
54124;DHT22;55741;53.252;5.788;2022-12-29T17:22:15;7.60;99.90
54124;DHT22;55741;53.252;5.788;2022-12-29T17:24:41;7.70;99.90
54124;DHT22;55741;53.252;5.788;2022-12-29T17:27:09;7.80;99.90
54124;DHT22;55741;53.252;5.788;2022-12-29T17:29:39;7.80;99.90
54124;DHT22;55741;53.252;5.788;2022-12-29T17:32:11;7.90;99.90
54124;DHT22;55741;53.252;5.788;2022-12-29T17:34:38;7.80;99.90
54124;DHT22;55741;53.252;5.788;2022-12-29T17:39:49;7.80;99.90
54124;DHT22;55741;53.252;5.788;2022-12-29T17:42:16;7.90;99.90
54124;DHT22;55741;53.252;5.788;2022-12-29T17:44:42;7.80;99.90
54124;DHT22;55741;53.252;5.788;2022-12-29T17:47:10;7.80;99.90
54124;DHT22;55741;53.252;5.788;2022-12-29T17:49:37;7.90;99.90
54124;DHT22;55741;53.252;5.788;2022-12-29T17:52:04;7.80;99.90
54124;DHT22;55741;53.252;5.788;2022-12-29T17:54:30;7.80;99.90
54124;DHT22;55741;53.252;5.788;2022-12-29T17:56:56;7.90;99.90
54124;DHT22;55741;53.252;5.788;2022-12-29T17:59:22;7.80;99.90
54124;DHT22;55741;53.252;5.788;2022-12-29T18:01:49;7.80;99.90
54124;DHT22;55741;53.252;5.788;2022-12-29T18:04:19;7.80;99.90
54124;DHT22;55741;53.252;5.788;2022-12-29T18:06:45;7.90;99.90
54124;DHT22;55741;53.252;5.788;2022-12-29T18:09:12;7.90;99.90
54124;DHT22;55741;53.252;5.788;2022-12-29T18:11:42;7.90;99.90
54124;DHT22;55741;53.252;5.788;2022-12-29T18:14:11;7.90;99.90
54124;DHT22;55741;53.252;5.788;2022-12-29T18:16:38;7.90;99.90
54124;DHT22;55741;53.252;5.788;2022-12-29T18:19:03;8.00;99.90
54124;DHT22;55741;53.252;5.788;2022-12-29T18:21:30;8.00;99.90
54124;DHT22;55741;53.252;5.788;2022-12-29T18:23:55;7.90;99.90
54124;DHT22;55741;53.252;5.788;2022-12-29T18:26:24;7.90;99.90
54124;DHT22;55741;53.252;5.788;2022-12-29T18:28:50;7.90;99.90
54124;DHT22;55741;53.252;5.788;2022-12-29T18:31:23;7.80;99.90
54124;DHT22;55741;53.252;5.788;2022-12-29T18:33:50;7.80;99.90